Time;durP1;ratioP1;P1;durP2;ratioP2;P2;SDS_P1;SDS_P2;PMS_P1;PMS_P2;Temp;Humidity;BMP_temperature;BMP_pressure;BME280_temperature;BME280_humidity;BME280_pressure;Samples;Min_cycle;Max_cycle;Signal;HPM_P1;HPM_P2
2021/03/09 00:02:28;;;;;;;3.50;1.63;;;11.30;92.90;;;;;;5076876;28;20932;-51
2021/03/09 00:04:58;;;;;;;2.53;1.70;;;11.20;92.40;;;;;;5076738;28;20576;-50
2021/03/09 00:07:28;;;;;;;2.92;1.70;;;11.20;93.10;;;;;;5074766;28;20472;-53
2021/03/09 00:10:00;;;;;;;2.35;1.50;;;11.10;93.40;;;;;;5065510;28;20210;-52
2021/03/09 00:12:30;;;;;;;2.42;1.60;;;11.10;93.50;;;;;;5065157;28;20267;-52
2021/03/09 00:15:00;;;;;;;1.67;1.13;;;11.00;93.90;;;;;;5066646;28;20332;-53
2021/03/09 00:17:34;;;;;;;1.60;1.50;;;10.80;94.30;;;;;;5073661;28;20238;-49
2021/03/09 00:20:07;;;;;;;2.60;1.80;;;10.80;95.00;;;;;;5080218;28;20601;-49
2021/03/09 00:22:37;;;;;;;2.40;1.60;;;10.80;95.00;;;;;;5078709;28;20610;-48
2021/03/09 00:25:09;;;;;;;4.28;1.40;;;10.80;95.20;;;;;;5071404;28;20200;-49
2021/03/09 00:27:39;;;;;;;3.75;2.28;;;10.70;94.30;;;;;;5074346;28;20231;-49
2021/03/09 00:30:11;;;;;;;5.53;3.33;;;10.50;96.30;;;;;;5064621;28;20207;-44
2021/03/09 00:32:41;;;;;;;6.20;4.53;;;10.50;99.00;;;;;;5070915;28;20232;-46
2021/03/09 00:35:12;;;;;;;11.10;5.18;;;10.30;99.90;;;;;;5063163;28;20226;-47
2021/03/09 00:37:42;;;;;;;7.68;4.50;;;10.00;99.90;;;;;;5077622;28;20207;-45
2021/03/09 00:40:14;;;;;;;4.97;4.47;;;9.80;99.90;;;;;;5075132;28;20297;-47
2021/03/09 00:42:44;;;;;;;4.45;4.05;;;9.70;99.90;;;;;;5075897;28;20251;-46
2021/03/09 00:45:14;;;;;;;4.35;3.95;;;9.60;99.90;;;;;;5071764;28;20251;-45
2021/03/09 00:47:58;;;;;;;3.88;3.58;;;9.50;99.90;;;;;;5076642;28;20293;-46
2021/03/09 00:50:28;;;;;;;5.05;3.50;;;9.50;99.90;;;;;;5060913;28;20234;-46
2021/03/09 00:52:58;;;;;;;3.20;2.90;;;9.60;99.90;;;;;;5062080;28;20202;-52
2021/03/09 00:55:29;;;;;;;3.63;3.30;;;9.60;99.90;;;;;;5063090;28;20594;-52
2021/03/09 00:58:01;;;;;;;3.58;3.22;;;9.60;99.90;;;;;;5063222;28;20280;-53
2021/03/09 01:00:32;;;;;;;5.50;2.30;;;9.70;99.90;;;;;;5080388;28;20214;-50
2021/03/09 01:03:02;;;;;;;4.63;2.50;;;9.70;99.90;;;;;;5074962;28;20214;-48
2021/03/09 01:05:32;;;;;;;4.13;2.13;;;9.70;99.90;;;;;;5067821;28;20293;-45
2021/03/09 01:08:02;;;;;;;3.20;2.30;;;9.70;99.90;;;;;;5062076;28;20212;-48
2021/03/09 01:10:34;;;;;;;2.53;1.90;;;9.80;99.90;;;;;;5061290;28;20259;-45
2021/03/09 01:13:04;;;;;;;2.95;2.55;;;9.80;99.90;;;;;;5078706;28;20229;-46
2021/03/09 01:15:34;;;;;;;3.03;2.40;;;9.80;99.90;;;;;;5079706;28;20278;-47
2021/03/09 01:18:20;;;;;;;3.53;3.00;;;9.70;99.90;;;;;;4996442;28;2074614;-51
2021/03/09 01:20:50;;;;;;;4.45;3.50;;;9.80;99.90;;;;;;5064198;28;20233;-49
2021/03/09 01:23:20;;;;;;;3.85;3.55;;;9.80;99.90;;;;;;5065788;28;20518;-49
2021/03/09 01:25:52;;;;;;;5.28;3.95;;;9.70;99.90;;;;;;5069299;28;20626;-47
2021/03/09 01:28:22;;;;;;;4.15;3.22;;;9.50;99.90;;;;;;5082995;28;20191;-46
2021/03/09 01:30:52;;;;;;;3.42;3.13;;;9.50;99.90;;;;;;5079532;28;20708;-49
2021/03/09 01:33:24;;;;;;;3.40;3.10;;;9.40;99.90;;;;;;5082079;28;20300;-50
2021/03/09 01:35:54;;;;;;;3.80;3.50;;;9.50;99.90;;;;;;5066790;28;20216;-49
2021/03/09 01:38:24;;;;;;;5.38;3.45;;;9.40;99.90;;;;;;5081675;28;20259;-49
2021/03/09 01:40:55;;;;;;;4.13;3.72;;;9.40;99.90;;;;;;5065596;28;20252;-46
2021/03/09 01:43:26;;;;;;;4.47;3.45;;;9.30;99.90;;;;;;5062439;28;20202;-49
2021/03/09 01:45:56;;;;;;;6.75;3.42;;;9.30;99.90;;;;;;5063929;28;20193;-46
2021/03/09 01:48:44;;;;;;;6.75;4.65;;;9.30;99.90;;;;;;5077605;28;20205;-47
2021/03/09 01:51:16;;;;;;;4.90;4.30;;;9.20;99.90;;;;;;5081739;28;20227;-48
2021/03/09 01:53:47;;;;;;;4.88;4.07;;;9.10;99.90;;;;;;5082143;28;20232;-47
2021/03/09 01:56:18;;;;;;;6.00;3.75;;;9.00;99.90;;;;;;5062335;28;20186;-50
2021/03/09 01:58:50;;;;;;;4.70;4.25;;;8.80;99.90;;;;;;5070928;28;20209;-50
2021/03/09 02:01:20;;;;;;;8.10;4.72;;;8.80;99.90;;;;;;5079296;28;20255;-49
2021/03/09 02:03:51;;;;;;;5.88;4.85;;;8.70;99.90;;;;;;5074208;28;20206;-50
2021/03/09 02:06:21;;;;;;;5.80;5.20;;;8.70;99.90;;;;;;5061480;28;20260;-53
2021/03/09 02:08:52;;;;;;;6.53;5.05;;;8.60;99.90;;;;;;5073081;28;20198;-53
2021/03/09 02:11:34;;;;;;;5.70;4.88;;;8.40;99.90;;;;;;5079686;28;20225;-51
2021/03/09 02:14:13;;;;;;;6.97;4.55;;;8.20;99.90;;;;;;5068184;28;20193;-51
2021/03/09 02:16:53;;;;;;;8.85;5.55;;;8.00;99.90;;;;;;5071573;28;20679;-51
2021/03/09 02:20:02;;;;;;;6.07;4.30;;;7.80;99.90;;;;;;5065383;28;20206;-49
2021/03/09 02:23:03;;;;;;;6.35;4.25;;;7.60;99.90;;;;;;5066937;28;20214;-49
2021/03/09 02:25:55;;;;;;;5.53;4.28;;;7.50;99.90;;;;;;5060917;28;20202;-50
2021/03/09 02:28:36;;;;;;;6.63;4.78;;;7.20;99.90;;;;;;5062568;28;20191;-52
2021/03/09 02:31:08;;;;;;;5.20;4.30;;;7.00;99.90;;;;;;5064677;28;20221;-48
2021/03/09 02:33:44;;;;;;;5.28;4.07;;;6.90;99.90;;;;;;5066386;28;20255;-51
2021/03/09 02:36:16;;;;;;;6.72;3.83;;;6.70;99.90;;;;;;5065662;28;20642;-53
2021/03/09 02:38:50;;;;;;;9.00;4.45;;;6.70;99.90;;;;;;5067760;28;20268;-53
2021/03/09 02:41:23;;;;;;;4.38;3.97;;;6.70;99.90;;;;;;5062486;28;20221;-47
2021/03/09 02:43:55;;;;;;;6.47;3.53;;;6.80;99.90;;;;;;5081516;28;20231;-52
2021/03/09 02:46:28;;;;;;;3.70;3.40;;;6.80;99.90;;;;;;5078410;28;20189;-52
2021/03/09 02:49:00;;;;;;;4.88;4.18;;;6.90;99.90;;;;;;5073975;28;20639;-46
2021/03/09 02:51:34;;;;;;;4.95;4.43;;;7.00;99.90;;;;;;5085235;28;20256;-47
2021/03/09 02:54:05;;;;;;;5.28;4.45;;;6.90;99.90;;;;;;5072829;28;20205;-49
2021/03/09 02:56:37;;;;;;;5.63;5.05;;;7.00;99.90;;;;;;5069084;28;20206;-45
2021/03/09 02:59:11;;;;;;;6.10;3.78;;;7.00;99.90;;;;;;5068448;28;20790;-49
2021/03/09 03:01:43;;;;;;;4.22;3.70;;;7.00;99.90;;;;;;5064887;28;20194;-45
2021/03/09 03:04:17;;;;;;;4.78;3.92;;;6.90;99.90;;;;;;5079527;28;20182;-49
2021/03/09 03:06:48;;;;;;;5.18;4.65;;;6.80;99.90;;;;;;5067093;28;20197;-48
2021/03/09 03:09:19;;;;;;;4.13;3.72;;;6.80;99.90;;;;;;5084941;28;20194;-50
2021/03/09 03:11:51;;;;;;;4.40;4.00;;;6.80;99.90;;;;;;5074140;28;20244;-50
2021/03/09 03:14:24;;;;;;;5.35;4.70;;;6.80;99.90;;;;;;5079413;28;20264;-51
2021/03/09 03:16:56;;;;;;;5.75;4.50;;;6.90;99.90;;;;;;5063994;28;20230;-46
2021/03/09 03:19:36;;;;;;;5.30;4.10;;;7.00;99.90;;;;;;5082642;28;20196;-50
2021/03/09 03:22:06;;;;;;;5.85;4.30;;;6.90;99.90;;;;;;5064846;28;20280;-51
2021/03/09 03:24:36;;;;;;;6.47;4.18;;;6.90;99.90;;;;;;5069301;28;20586;-50
2021/03/09 03:27:08;;;;;;;5.53;4.30;;;6.70;99.90;;;;;;5079768;28;20591;-50
2021/03/09 03:29:38;;;;;;;5.47;4.97;;;6.60;99.90;;;;;;5070472;28;20270;-50
2021/03/09 03:32:10;;;;;;;6.00;4.15;;;6.60;99.90;;;;;;5064836;28;20910;-48
2021/03/09 03:34:41;;;;;;;5.18;4.78;;;6.60;99.90;;;;;;5071663;28;20924;-45
2021/03/09 03:37:11;;;;;;;6.93;6.20;;;6.60;99.90;;;;;;5080640;28;20205;-52
2021/03/09 03:39:41;;;;;;;10.65;5.60;;;6.50;99.90;;;;;;5076180;28;20225;-47
2021/03/09 03:42:12;;;;;;;7.70;5.78;;;6.50;99.90;;;;;;5080348;28;20205;-45
2021/03/09 03:44:42;;;;;;;6.70;5.93;;;6.50;99.90;;;;;;5076312;28;20197;-46
2021/03/09 03:47:13;;;;;;;9.45;5.85;;;6.50;99.90;;;;;;5072255;28;20249;-51
2021/03/09 03:49:44;;;;;;;7.78;5.53;;;6.60;99.90;;;;;;5067990;28;20195;-52
2021/03/09 03:52:25;;;;;;;9.70;6.57;;;6.70;99.90;;;;;;5076362;28;20226;-54
2021/03/09 03:55:03;;;;;;;6.43;5.70;;;6.70;99.90;;;;;;5067179;28;20249;-50
2021/03/09 03:57:42;;;;;;;7.30;5.50;;;6.70;99.90;;;;;;5083489;28;20208;-47
2021/03/09 04:00:15;;;;;;;10.13;6.03;;;6.70;99.90;;;;;;5073173;28;20202;-50
2021/03/09 04:02:49;;;;;;;7.00;6.30;;;6.70;99.90;;;;;;5081410;28;20213;-48
2021/03/09 04:05:23;;;;;;;6.13;5.50;;;6.60;99.90;;;;;;5070709;28;20193;-46
2021/03/09 04:07:54;;;;;;;7.53;6.10;;;6.60;99.90;;;;;;5067106;28;20197;-50
2021/03/09 04:10:25;;;;;;;10.30;6.85;;;6.70;99.90;;;;;;5066090;28;20201;-51
2021/03/09 04:12:56;;;;;;;9.60;5.90;;;6.70;99.90;;;;;;5077860;28;20231;-48
2021/03/09 04:15:27;;;;;;;5.95;5.22;;;6.80;99.90;;;;;;5078151;28;20272;-52
2021/03/09 04:18:00;;;;;;;6.13;5.60;;;6.90;99.90;;;;;;5066628;28;20230;-49
2021/03/09 04:20:43;;;;;;;6.75;6.05;;;7.00;99.90;;;;;;5071182;28;20197;-50
2021/03/09 04:23:17;;;;;;;6.50;5.90;;;7.00;99.90;;;;;;5070879;28;20221;-51
2021/03/09 04:25:49;;;;;;;6.60;6.00;;;7.00;99.90;;;;;;5065064;28;20191;-53
2021/03/09 04:28:19;;;;;;;7.57;6.63;;;7.00;99.90;;;;;;5064899;28;20202;-52
2021/03/09 04:30:50;;;;;;;6.53;5.75;;;7.10;99.90;;;;;;5067686;28;20205;-50
2021/03/09 04:33:22;;;;;;;6.68;5.97;;;7.10;99.90;;;;;;5067789;28;20584;-51
2021/03/09 04:35:52;;;;;;;5.03;4.10;;;7.20;99.90;;;;;;5073554;28;20554;-49
2021/03/09 04:38:23;;;;;;;7.15;4.65;;;7.20;99.90;;;;;;5075036;28;20213;-52
2021/03/09 04:40:53;;;;;;;4.57;3.65;;;7.20;99.90;;;;;;5074257;28;20198;-46
2021/03/09 04:43:24;;;;;;;5.00;3.67;;;7.20;99.90;;;;;;5065090;28;20202;-47
2021/03/09 04:45:56;;;;;;;3.45;3.22;;;7.20;99.90;;;;;;5072236;28;20213;-47
2021/03/09 04:48:29;;;;;;;3.25;2.95;;;7.30;99.90;;;;;;5076401;28;20197;-48
2021/03/09 04:51:06;;;;;;;4.68;3.13;;;7.30;99.90;;;;;;5065593;28;20197;-49
2021/03/09 04:53:37;;;;;;;3.78;3.00;;;7.30;99.90;;;;;;5080716;28;20250;-48
2021/03/09 04:56:08;;;;;;;3.75;2.83;;;7.30;99.90;;;;;;5082363;28;20202;-53
2021/03/09 04:58:38;;;;;;;2.45;2.25;;;7.40;99.90;;;;;;5068244;28;20205;-55
2021/03/09 05:01:08;;;;;;;2.25;2.08;;;7.40;99.90;;;;;;5068955;28;20212;-46
2021/03/09 05:03:39;;;;;;;4.95;3.03;;;7.40;99.90;;;;;;5078976;28;20216;-49
2021/03/09 05:06:09;;;;;;;2.38;2.17;;;7.40;99.90;;;;;;5080102;28;20247;-51
2021/03/09 05:08:39;;;;;;;2.13;1.92;;;7.30;99.90;;;;;;5074995;28;20202;-50
2021/03/09 05:11:09;;;;;;;2.00;1.80;;;7.30;99.90;;;;;;5075853;28;20205;-53
2021/03/09 05:13:39;;;;;;;1.50;1.40;;;7.30;99.90;;;;;;5081118;28;20209;-50
2021/03/09 05:16:09;;;;;;;1.80;1.70;;;7.20;99.90;;;;;;5068777;28;20259;-48
2021/03/09 05:18:42;;;;;;;1.60;1.50;;;7.20;99.90;;;;;;5067562;28;20221;-44
2021/03/09 05:21:21;;;;;;;1.77;1.67;;;7.20;99.90;;;;;;5068920;28;20675;-47
2021/03/09 05:23:51;;;;;;;1.58;1.48;;;7.10;99.90;;;;;;5070880;28;20238;-48
2021/03/09 05:26:25;;;;;;;1.75;1.65;;;7.10;99.90;;;;;;5079488;28;20654;-49
2021/03/09 05:28:56;;;;;;;2.40;1.60;;;7.10;99.90;;;;;;5075333;28;20205;-48
2021/03/09 05:31:26;;;;;;;1.55;1.45;;;7.10;99.90;;;;;;5065967;28;20241;-44
2021/03/09 05:33:58;;;;;;;2.00;1.80;;;7.00;99.90;;;;;;5066244;28;20224;-45
2021/03/09 05:36:29;;;;;;;1.58;1.48;;;7.00;99.90;;;;;;5073743;28;20508;-42
2021/03/09 05:38:59;;;;;;;1.33;1.23;;;6.90;99.90;;;;;;5074836;28;20676;-47
2021/03/09 05:41:29;;;;;;;3.60;1.27;;;6.80;99.90;;;;;;5070842;28;20274;-46
2021/03/09 05:43:59;;;;;;;1.83;1.48;;;6.80;99.90;;;;;;5073180;28;20228;-47
2021/03/09 05:46:30;;;;;;;1.95;1.85;;;6.80;99.90;;;;;;5073015;28;20201;-44
2021/03/09 05:49:01;;;;;;;1.40;1.13;;;6.70;99.90;;;;;;5062876;28;20205;-43
2021/03/09 05:51:51;;;;;;;1.30;1.20;;;6.80;99.90;;;;;;5065961;28;20209;-46
2021/03/09 05:54:22;;;;;;;1.08;1.08;;;6.80;99.90;;;;;;5069572;28;20205;-46
2021/03/09 05:56:52;;;;;;;1.23;1.10;;;6.70;99.90;;;;;;5070396;28;20271;-45
2021/03/09 05:59:24;;;;;;;1.60;1.50;;;6.70;99.90;;;;;;5075008;28;20209;-45
2021/03/09 06:01:54;;;;;;;1.70;1.30;;;6.60;99.90;;;;;;5065298;28;20214;-46
2021/03/09 06:04:26;;;;;;;1.98;1.40;;;6.60;99.90;;;;;;5076118;28;20201;-42
2021/03/09 06:06:56;;;;;;;3.13;1.40;;;6.50;99.90;;;;;;5080402;28;20277;-47
2021/03/09 06:09:43;;;;;;;1.80;1.50;;;6.50;99.90;;;;;;5079024;28;20220;-46
2021/03/09 06:12:16;;;;;;;2.25;1.70;;;6.50;99.90;;;;;;5080042;28;20280;-48
2021/03/09 06:14:59;;;;;;;1.90;1.40;;;6.50;99.90;;;;;;5082320;28;20299;-44
2021/03/09 06:17:31;;;;;;;1.70;1.60;;;6.40;99.90;;;;;;5082840;28;20303;-42
2021/03/09 06:20:27;;;;;;;1.90;1.40;;;6.30;99.90;;;;;;5080901;28;20243;-46
2021/03/09 06:22:59;;;;;;;1.77;1.50;;;6.20;99.90;;;;;;5084380;28;20662;-41
2021/03/09 06:25:32;;;;;;;1.52;1.42;;;6.10;99.90;;;;;;5084385;28;20231;-41
2021/03/09 06:28:03;;;;;;;2.30;2.10;;;6.10;99.90;;;;;;5086119;28;20197;-46
2021/03/09 06:30:34;;;;;;;1.50;1.40;;;5.90;99.90;;;;;;5080562;28;20206;-41
2021/03/09 06:33:05;;;;;;;2.47;2.28;;;5.90;99.90;;;;;;5081340;28;20240;-43
2021/03/09 06:35:39;;;;;;;2.30;2.08;;;5.90;99.90;;;;;;5080450;28;20230;-44
2021/03/09 06:38:20;;;;;;;2.22;1.90;;;5.80;99.90;;;;;;5079676;28;20590;-42
2021/03/09 06:41:10;;;;;;;2.05;1.70;;;5.70;99.90;;;;;;5081337;28;20209;-44
2021/03/09 06:43:42;;;;;;;2.40;2.20;;;5.60;99.90;;;;;;5084620;28;20263;-45
2021/03/09 06:46:17;;;;;;;2.72;2.42;;;5.50;99.90;;;;;;5071701;28;20219;-43
2021/03/09 06:48:49;;;;;;;2.45;2.25;;;5.30;99.90;;;;;;5084816;28;20212;-43
2021/03/09 06:51:30;;;;;;;2.95;2.25;;;5.30;99.90;;;;;;5078065;28;20205;-43
2021/03/09 06:54:07;;;;;;;4.80;3.35;;;5.30;99.90;;;;;;5072785;28;20248;-42
2021/03/09 06:56:39;;;;;;;3.60;2.70;;;5.30;99.90;;;;;;5082330;28;20255;-45
2021/03/09 06:59:23;;;;;;;3.03;2.72;;;5.30;99.90;;;;;;5082626;28;20201;-40
2021/03/09 07:02:09;;;;;;;3.55;3.25;;;5.30;99.90;;;;;;5070082;28;20281;-42
2021/03/09 07:04:40;;;;;;;3.25;2.63;;;5.20;99.90;;;;;;5076571;28;21008;-43
2021/03/09 07:07:12;;;;;;;2.65;2.45;;;5.20;99.90;;;;;;5084743;28;20205;-45
2021/03/09 07:09:53;;;;;;;3.35;2.65;;;5.10;99.90;;;;;;5080903;28;20608;-44
2021/03/09 07:12:24;;;;;;;3.67;3.28;;;5.10;99.90;;;;;;5083895;28;20225;-46
2021/03/09 07:14:54;;;;;;;4.25;3.85;;;5.00;99.90;;;;;;5082638;28;20209;-46
2021/03/09 07:17:27;;;;;;;3.70;3.30;;;5.10;99.90;;;;;;5083775;28;20237;-43
2021/03/09 07:19:58;;;;;;;4.78;3.17;;;5.10;99.90;;;;;;5074992;28;20204;-42
2021/03/09 07:22:53;;;;;;;5.25;3.65;;;5.30;99.90;;;;;;5083555;28;20289;-42
2021/03/09 07:25:26;;;;;;;4.60;3.95;;;5.30;99.90;;;;;;5078488;28;20204;-45
2021/03/09 07:28:01;;;;;;;4.25;3.20;;;5.30;99.90;;;;;;5078942;28;20236;-44
2021/03/09 07:30:35;;;;;;;4.90;3.95;;;5.40;99.90;;;;;;5072129;28;20231;-45
2021/03/09 07:33:07;;;;;;;3.97;3.65;;;5.40;99.90;;;;;;5075679;28;20229;-44
2021/03/09 07:35:38;;;;;;;5.35;4.30;;;5.40;99.90;;;;;;5076122;28;20228;-44
2021/03/09 07:38:11;;;;;;;4.88;4.40;;;5.40;99.90;;;;;;5080113;28;20190;-46
2021/03/09 07:40:41;;;;;;;6.60;4.97;;;5.40;99.90;;;;;;5074722;28;20608;-42
2021/03/09 07:43:12;;;;;;;5.60;5.05;;;5.40;99.90;;;;;;5077072;28;20770;-42
2021/03/09 07:45:44;;;;;;;5.00;4.50;;;5.40;99.90;;;;;;5078637;28;20213;-45
2021/03/09 07:48:18;;;;;;;4.78;4.20;;;5.40;99.90;;;;;;5070954;28;20240;-46
2021/03/09 07:50:47;;;;;;;3.78;3.47;;;5.30;99.90;;;;;;5078173;28;20249;-41
2021/03/09 07:53:19;;;;;;;5.40;4.05;;;5.40;99.90;;;;;;5084496;28;20536;-43
2021/03/09 07:55:48;;;;;;;5.47;4.30;;;5.40;99.90;;;;;;5071819;28;20239;-42
2021/03/09 07:58:22;;;;;;;5.03;3.85;;;5.40;99.90;;;;;;5083669;28;20288;-44
2021/03/09 08:00:53;;;;;;;4.45;3.60;;;5.40;99.90;;;;;;5075742;28;20210;-45
2021/03/09 08:03:24;;;;;;;4.82;3.83;;;5.30;99.90;;;;;;5080241;28;20212;-44
2021/03/09 08:05:55;;;;;;;3.80;3.40;;;5.30;99.90;;;;;;5071637;28;20193;-46
2021/03/09 08:08:45;;;;;;;3.78;3.47;;;5.30;99.90;;;;;;5067399;28;20261;-43
2021/03/09 08:11:41;;;;;;;3.60;3.25;;;5.40;99.90;;;;;;5076993;28;20264;-44
2021/03/09 08:14:24;;;;;;;7.07;3.42;;;5.30;99.90;;;;;;5077470;28;20205;-41
2021/03/09 08:16:55;;;;;;;3.50;3.20;;;5.40;99.90;;;;;;5080703;28;20220;-42
2021/03/09 08:19:43;;;;;;;4.35;2.97;;;5.40;99.90;;;;;;5080120;28;20202;-41
2021/03/09 08:22:13;;;;;;;2.83;2.63;;;5.50;99.90;;;;;;5079215;28;20278;-42
2021/03/09 08:24:55;;;;;;;3.60;2.88;;;5.60;99.90;;;;;;5083139;28;20585;-43
2021/03/09 08:27:42;;;;;;;4.75;2.58;;;5.60;99.90;;;;;;5075386;28;20279;-43
2021/03/09 08:30:31;;;;;;;4.07;2.60;;;5.60;99.90;;;;;;5070001;28;20250;-45
2021/03/09 08:33:34;;;;;;;3.63;3.08;;;5.70;99.90;;;;;;5080998;28;20320;-44
2021/03/09 08:36:34;;;;;;;2.53;2.33;;;5.80;99.90;;;;;;5074485;28;20212;-45
2021/03/09 08:39:16;;;;;;;3.13;2.65;;;5.90;99.90;;;;;;5073769;28;20213;-44
2021/03/09 08:42:03;;;;;;;3.17;2.40;;;5.90;99.90;;;;;;5082758;28;20208;-44
2021/03/09 08:44:33;;;;;;;3.83;3.38;;;5.90;99.90;;;;;;5075879;28;20205;-43
2021/03/09 08:47:05;;;;;;;2.95;2.72;;;5.90;99.90;;;;;;5065940;28;20271;-45
2021/03/09 08:49:49;;;;;;;3.42;2.75;;;5.90;99.90;;;;;;5078918;28;20331;-46
2021/03/09 08:52:41;;;;;;;3.10;2.80;;;6.00;99.90;;;;;;5081923;28;20298;-48
2021/03/09 08:55:11;;;;;;;3.13;2.53;;;6.00;99.90;;;;;;5073194;28;20948;-45
2021/03/09 08:57:43;;;;;;;2.40;2.20;;;6.00;99.90;;;;;;5080840;28;20205;-46
2021/03/09 09:00:14;;;;;;;5.50;2.65;;;6.00;99.90;;;;;;5073221;28;20193;-45
2021/03/09 09:02:44;;;;;;;3.20;2.55;;;6.20;99.90;;;;;;5080881;28;20259;-45
2021/03/09 09:05:15;;;;;;;2.83;2.30;;;6.10;99.90;;;;;;5077331;28;20206;-47
2021/03/09 09:07:46;;;;;;;3.78;2.50;;;6.00;99.90;;;;;;5075308;28;20205;-44
2021/03/09 09:10:18;;;;;;;3.40;2.55;;;6.10;99.90;;;;;;5081365;28;20212;-46
2021/03/09 09:12:51;;;;;;;2.60;2.40;;;6.10;99.90;;;;;;5082643;28;20292;-46
2021/03/09 09:15:24;;;;;;;3.13;2.40;;;6.00;99.90;;;;;;5076737;28;20202;-46
2021/03/09 09:17:56;;;;;;;2.60;2.40;;;6.10;99.90;;;;;;5080404;28;20767;-46
2021/03/09 09:20:32;;;;;;;2.60;2.40;;;6.30;99.90;;;;;;5081831;28;20263;-46
2021/03/09 09:23:11;;;;;;;3.30;2.47;;;6.30;99.90;;;;;;5075333;28;20248;-44
2021/03/09 09:25:43;;;;;;;2.45;2.00;;;6.40;99.90;;;;;;5081454;28;20213;-45
2021/03/09 09:28:24;;;;;;;3.42;1.98;;;6.40;99.90;;;;;;5081600;28;20209;-48
2021/03/09 09:30:55;;;;;;;2.20;2.10;;;6.40;99.90;;;;;;5078808;28;20208;-44
2021/03/09 09:33:49;;;;;;;3.30;2.08;;;6.40;99.90;;;;;;5077864;28;20287;-48
2021/03/09 09:36:19;;;;;;;1.88;1.73;;;6.40;99.90;;;;;;5074678;28;20194;-44
2021/03/09 09:38:51;;;;;;;1.75;1.50;;;6.40;99.90;;;;;;5075405;28;20205;-46
2021/03/09 09:41:22;;;;;;;2.45;2.25;;;6.50;99.90;;;;;;5081249;28;20210;-47
2021/03/09 09:43:53;;;;;;;3.10;1.60;;;6.40;99.90;;;;;;5070765;28;20220;-44
2021/03/09 09:46:25;;;;;;;2.20;1.75;;;6.40;99.90;;;;;;5078084;28;20232;-46
2021/03/09 09:48:56;;;;;;;2.30;1.75;;;6.40;99.90;;;;;;5078929;28;20288;-48
2021/03/09 09:51:27;;;;;;;2.05;1.95;;;6.40;99.90;;;;;;5068896;28;20198;-47
2021/03/09 09:54:10;;;;;;;1.48;1.38;;;6.30;99.90;;;;;;5075781;28;20243;-47
2021/03/09 09:56:41;;;;;;;4.10;1.67;;;6.30;99.90;;;;;;5085785;28;20271;-46
2021/03/09 09:59:27;;;;;;;1.75;1.63;;;6.40;99.90;;;;;;5083406;28;20202;-45
2021/03/09 10:01:57;;;;;;;1.88;1.67;;;6.50;99.90;;;;;;5073884;28;20202;-43
2021/03/09 10:04:34;;;;;;;2.10;1.90;;;6.40;99.90;;;;;;5075188;28;20253;-44
2021/03/09 10:07:15;;;;;;;2.10;2.00;;;6.40;99.90;;;;;;5071262;28;20243;-47
2021/03/09 10:09:59;;;;;;;7.07;2.28;;;6.30;99.90;;;;;;5083925;28;20205;-47
2021/03/09 10:12:47;;;;;;;2.40;2.20;;;6.20;99.90;;;;;;5078881;28;20263;-46
2021/03/09 10:15:19;;;;;;;1.90;1.80;;;6.10;99.90;;;;;;5080125;28;20635;-44
2021/03/09 10:17:49;;;;;;;1.95;1.60;;;6.00;99.90;;;;;;5083947;28;20247;-44
2021/03/09 10:20:22;;;;;;;2.10;1.90;;;6.00;99.90;;;;;;5066086;28;20206;-50
2021/03/09 10:23:02;;;;;;;3.10;2.15;;;6.00;99.90;;;;;;5082264;28;20221;-50
2021/03/09 10:25:33;;;;;;;2.55;2.35;;;6.00;99.90;;;;;;5081537;28;20267;-50
2021/03/09 10:28:04;;;;;;;3.55;2.25;;;6.00;99.90;;;;;;5081160;28;20232;-44
2021/03/09 10:30:39;;;;;;;2.20;2.00;;;5.90;99.90;;;;;;5076058;28;20202;-50
2021/03/09 10:33:13;;;;;;;3.55;2.10;;;5.70;99.90;;;;;;5066042;28;20298;-50
2021/03/09 10:36:05;;;;;;;3.10;1.95;;;5.60;99.90;;;;;;5072189;28;20285;-47
2021/03/09 10:38:35;;;;;;;4.32;2.30;;;5.60;99.90;;;;;;5066888;28;20259;-48
2021/03/09 10:41:06;;;;;;;1.92;1.77;;;5.60;99.90;;;;;;5077903;28;20201;-49
2021/03/09 10:43:43;;;;;;;2.50;1.60;;;5.60;99.90;;;;;;5081149;28;20259;-48
2021/03/09 10:46:15;;;;;;;1.77;1.63;;;5.60;99.90;;;;;;5069631;28;20255;-49
2021/03/09 10:48:45;;;;;;;1.95;1.65;;;5.70;99.90;;;;;;5085152;28;20201;-51
2021/03/09 10:51:22;;;;;;;1.70;1.60;;;5.70;99.90;;;;;;5081220;28;20201;-49
2021/03/09 10:53:52;;;;;;;1.60;1.50;;;5.70;99.90;;;;;;5080825;28;20644;-48
2021/03/09 10:56:22;;;;;;;3.28;1.80;;;5.80;99.90;;;;;;5071267;28;20206;-47
2021/03/09 10:58:52;;;;;;;1.42;1.33;;;5.90;99.90;;;;;;5072017;28;20739;-49
2021/03/09 11:01:26;;;;;;;2.13;1.85;;;6.00;99.90;;;;;;5080526;28;20255;-51
2021/03/09 11:03:56;;;;;;;1.60;1.48;;;6.00;99.90;;;;;;5081961;28;20212;-48
2021/03/09 11:06:26;;;;;;;2.35;2.15;;;6.00;99.90;;;;;;5069530;28;20205;-51
2021/03/09 11:08:57;;;;;;;1.80;1.70;;;6.10;99.90;;;;;;5079614;28;20201;-49
2021/03/09 11:11:27;;;;;;;1.92;1.83;;;6.10;99.90;;;;;;5079316;28;20197;-52
2021/03/09 11:13:57;;;;;;;2.10;1.90;;;6.10;99.90;;;;;;5084716;28;20255;-51
2021/03/09 11:16:30;;;;;;;2.33;1.80;;;6.10;99.90;;;;;;5074426;28;20197;-48
2021/03/09 11:19:01;;;;;;;1.70;1.60;;;6.10;99.90;;;;;;5076887;28;20241;-46
2021/03/09 11:21:31;;;;;;;1.40;1.30;;;6.20;99.90;;;;;;5081012;28;20236;-50
2021/03/09 11:24:01;;;;;;;1.55;1.42;;;6.20;99.90;;;;;;5081874;28;20221;-51
2021/03/09 11:26:31;;;;;;;1.92;1.73;;;6.20;99.90;;;;;;5080923;28;20254;-47
2021/03/09 11:29:02;;;;;;;1.92;1.80;;;6.20;99.90;;;;;;5083395;28;20212;-49
2021/03/09 11:31:33;;;;;;;2.20;2.00;;;6.20;99.90;;;;;;5078597;28;20728;-51
2021/03/09 11:34:03;;;;;;;2.22;1.83;;;6.30;99.90;;;;;;5070419;28;20226;-50
2021/03/09 11:36:33;;;;;;;1.92;1.83;;;6.30;99.90;;;;;;5072364;28;20209;-45
2021/03/09 11:39:03;;;;;;;1.70;1.60;;;6.30;99.90;;;;;;5076462;28;20292;-45
2021/03/09 11:41:33;;;;;;;2.15;1.50;;;6.30;99.90;;;;;;5080308;28;20230;-49
2021/03/09 11:44:04;;;;;;;2.38;1.85;;;6.30;99.90;;;;;;5083757;28;20270;-47
2021/03/09 11:46:35;;;;;;;1.75;1.60;;;6.30;99.90;;;;;;5080410;28;20342;-48
2021/03/09 11:49:05;;;;;;;2.30;2.10;;;6.40;99.90;;;;;;5083678;28;20212;-47
2021/03/09 11:51:36;;;;;;;2.13;2.00;;;6.40;99.90;;;;;;5073424;28;20270;-48
2021/03/09 11:54:06;;;;;;;2.45;1.73;;;6.40;99.90;;;;;;5081172;28;20229;-46
2021/03/09 11:56:36;;;;;;;4.50;2.22;;;6.50;99.90;;;;;;5077983;28;20266;-48
2021/03/09 11:59:07;;;;;;;1.80;1.70;;;6.40;99.90;;;;;;5083296;28;20639;-47
2021/03/09 12:01:38;;;;;;;3.42;2.20;;;6.40;99.90;;;;;;5077130;28;20209;-51
2021/03/09 12:04:08;;;;;;;2.40;2.10;;;6.40;99.90;;;;;;5081197;28;20206;-47
2021/03/09 12:06:38;;;;;;;2.95;2.50;;;6.40;99.90;;;;;;5070819;28;20229;-45
2021/03/09 12:09:09;;;;;;;2.85;2.75;;;6.40;99.90;;;;;;5072739;28;20213;-45
2021/03/09 12:11:39;;;;;;;2.85;2.50;;;6.40;99.90;;;;;;5080809;28;20255;-46
2021/03/09 12:14:09;;;;;;;3.78;2.30;;;6.30;99.90;;;;;;5083671;28;20219;-48
2021/03/09 12:16:42;;;;;;;2.80;2.60;;;6.30;99.90;;;;;;5072216;28;20246;-50
2021/03/09 12:19:12;;;;;;;3.17;2.78;;;6.40;99.90;;;;;;5082893;28;20229;-47
2021/03/09 12:21:42;;;;;;;4.18;2.90;;;6.40;99.90;;;;;;5080157;28;20217;-48
2021/03/09 12:24:12;;;;;;;4.07;2.75;;;6.40;99.90;;;;;;5079613;28;20209;-48
2021/03/09 12:26:42;;;;;;;3.63;2.83;;;6.40;99.90;;;;;;5082820;28;20235;-51
2021/03/09 12:29:12;;;;;;;3.22;2.92;;;6.30;99.90;;;;;;5080432;28;20202;-48
2021/03/09 12:31:43;;;;;;;5.05;2.85;;;6.30;99.90;;;;;;5076793;28;20266;-47
2021/03/09 12:34:14;;;;;;;3.70;3.40;;;6.30;99.90;;;;;;5078891;28;20229;-50
2021/03/09 12:36:44;;;;;;;3.80;3.50;;;6.20;99.90;;;;;;5077170;28;20205;-52
2021/03/09 12:39:14;;;;;;;4.63;4.22;;;6.20;99.90;;;;;;5081112;28;20227;-53
2021/03/09 12:41:44;;;;;;;4.05;3.20;;;6.20;99.90;;;;;;5072187;28;20217;-50
2021/03/09 12:44:14;;;;;;;3.55;2.97;;;6.20;99.90;;;;;;5077794;28;20217;-52
2021/03/09 12:46:45;;;;;;;4.20;3.80;;;6.20;99.90;;;;;;5073850;28;20217;-54
2021/03/09 12:49:15;;;;;;;3.88;3.30;;;6.20;99.90;;;;;;5075473;28;20255;-51
2021/03/09 12:51:45;;;;;;;4.43;3.38;;;6.20;99.90;;;;;;5078838;28;20292;-52
2021/03/09 12:54:16;;;;;;;3.55;3.25;;;6.30;99.90;;;;;;5081702;28;20229;-52
2021/03/09 12:56:45;;;;;;;3.70;3.40;;;6.20;99.90;;;;;;5082856;28;20246;-50
2021/03/09 12:59:15;;;;;;;3.70;3.40;;;6.30;99.90;;;;;;5083060;28;20221;-52
2021/03/09 13:01:47;;;;;;;3.35;2.70;;;6.30;99.90;;;;;;5080381;28;20224;-47
2021/03/09 13:04:18;;;;;;;3.25;2.95;;;6.20;99.90;;;;;;5080761;28;20212;-49
2021/03/09 13:06:48;;;;;;;4.50;3.50;;;6.30;99.90;;;;;;5067045;28;20279;-50
2021/03/09 13:09:18;;;;;;;3.15;2.85;;;6.20;99.90;;;;;;5074783;28;20208;-46
2021/03/09 13:11:48;;;;;;;2.95;2.75;;;6.10;99.90;;;;;;5082237;28;20263;-51
2021/03/09 13:14:18;;;;;;;3.10;2.72;;;6.10;99.90;;;;;;5082006;28;20348;-51
2021/03/09 13:17:08;;;;;;;5.30;2.95;;;6.20;99.90;;;;;;5072592;28;20205;-52
2021/03/09 13:19:38;;;;;;;2.53;2.33;;;6.20;99.90;;;;;;5082901;28;20630;-51
2021/03/09 13:22:09;;;;;;;2.60;2.40;;;6.20;99.90;;;;;;5066696;28;20304;-50
2021/03/09 13:24:39;;;;;;;2.40;2.00;;;6.10;99.90;;;;;;5067418;28;20205;-49
2021/03/09 13:27:09;;;;;;;2.60;1.83;;;6.10;99.90;;;;;;5076138;28;20346;-47
2021/03/09 13:29:39;;;;;;;3.42;1.98;;;6.10;99.90;;;;;;5070037;28;20220;-46